createdAt,value
2019-01-11T00:00:50.747Z,79.80
2019-01-11T00:03:19.354Z,79.30
2019-01-11T00:05:48.069Z,79.50
2019-01-11T00:08:16.749Z,79.30
2019-01-11T00:10:45.318Z,80.10
2019-01-11T00:13:13.967Z,78.90
2019-01-11T00:15:42.567Z,79.50
2019-01-11T00:18:11.137Z,80.10
2019-01-11T00:20:39.671Z,79.50
2019-01-11T00:23:08.317Z,79.90
2019-01-11T00:25:36.842Z,81.00
2019-01-11T00:28:05.550Z,80.10
2019-01-11T00:33:08.122Z,79.90
2019-01-11T00:35:36.710Z,82.30
2019-01-11T00:38:05.195Z,82.80
2019-01-11T00:40:33.775Z,81.50
2019-01-11T00:43:02.394Z,81.50
2019-01-11T00:45:30.974Z,81.30
2019-01-11T00:47:59.526Z,81.50
2019-01-11T00:50:28.106Z,81.50
2019-01-11T00:52:56.666Z,81.50
2019-01-11T00:55:25.246Z,80.90
2019-01-11T00:57:53.818Z,81.70
2019-01-11T01:00:24.098Z,82.30
2019-01-11T01:02:52.931Z,83.30
2019-01-11T01:05:21.684Z,81.60
2019-01-11T01:07:50.538Z,82.20
2019-01-11T01:10:20.938Z,83.20
2019-01-11T01:12:49.550Z,83.00
2019-01-11T01:15:18.763Z,83.30
2019-01-11T01:17:47.430Z,84.30
2019-01-11T01:20:17.994Z,83.30
2019-01-11T01:22:47.054Z,84.00
2019-01-11T01:25:15.874Z,82.80
2019-01-11T01:27:44.497Z,83.20
2019-01-11T01:30:18.038Z,84.20
2019-01-11T01:32:46.508Z,84.20
2019-01-11T01:35:15.238Z,84.50
2019-01-11T01:37:44.222Z,84.00
2019-01-11T01:40:15.342Z,84.70
2019-01-11T01:42:44.018Z,83.00
2019-01-11T01:45:16.114Z,83.10
2019-01-11T01:47:45.027Z,83.50
2019-01-11T01:50:14.147Z,84.40
2019-01-11T01:52:42.782Z,84.00
2019-01-11T01:55:13.706Z,82.20
2019-01-11T01:57:42.264Z,83.50
2019-01-11T02:00:16.718Z,83.30
2019-01-11T02:02:45.266Z,83.00
2019-01-11T02:05:14.614Z,84.10
2019-01-11T02:07:43.258Z,83.70
2019-01-11T02:10:12.950Z,83.10
2019-01-11T02:12:41.614Z,83.90
2019-01-11T02:15:11.513Z,84.20
2019-01-11T02:17:40.164Z,85.70
2019-01-11T02:20:11.810Z,84.20
2019-01-11T02:22:40.382Z,83.30
2019-01-11T02:25:09.402Z,84.20
2019-01-11T02:27:37.912Z,82.80
2019-01-11T02:30:09.625Z,84.50
2019-01-11T02:32:38.182Z,83.60
2019-01-11T02:35:07.011Z,84.10
2019-01-11T02:37:35.568Z,83.20
2019-01-11T02:40:06.758Z,86.00
2019-01-11T02:42:35.318Z,85.10
2019-01-11T02:45:05.368Z,85.30
2019-01-11T02:47:33.900Z,85.00
2019-01-11T02:50:02.494Z,84.50
2019-01-11T02:52:31.050Z,83.70
2019-01-11T02:54:59.604Z,83.10
2019-01-11T02:57:28.186Z,84.10
2019-01-11T02:59:56.742Z,84.90
2019-01-11T03:02:25.254Z,84.40
2019-01-11T03:04:53.806Z,85.20
2019-01-11T03:07:22.382Z,83.90
2019-01-11T03:09:50.926Z,83.60
2019-01-11T03:12:19.523Z,84.00
2019-01-11T03:14:48.077Z,82.70
2019-01-11T03:17:16.662Z,82.70
2019-01-11T03:19:47.869Z,83.60
2019-01-11T03:22:15.418Z,82.90
2019-01-11T03:24:44.000Z,82.20
2019-01-11T03:27:12.666Z,82.20
2019-01-11T03:29:41.242Z,83.70
2019-01-11T03:32:09.867Z,81.50
2019-01-11T03:34:40.098Z,81.10
2019-01-11T03:37:08.654Z,82.30
2019-01-11T03:39:37.242Z,81.60
2019-01-11T03:42:07.436Z,81.80
2019-01-11T03:44:35.996Z,80.10
2019-01-11T03:47:04.843Z,82.60
2019-01-11T03:49:33.398Z,81.90
2019-01-11T03:52:01.910Z,81.60
2019-01-11T03:54:30.454Z,80.20
2019-01-11T03:56:59.277Z,78.90
2019-01-11T03:59:27.839Z,79.70
2019-01-11T04:01:56.454Z,80.10
2019-01-11T04:04:25.046Z,79.30
2019-01-11T04:06:53.683Z,80.30
2019-01-11T04:09:22.288Z,80.40
2019-01-11T04:11:50.773Z,80.50
2019-01-11T04:14:19.358Z,80.50
2019-01-11T04:16:47.906Z,80.70
2019-01-11T04:19:16.502Z,80.30
2019-01-11T04:21:46.751Z,79.90
2019-01-11T04:24:15.326Z,80.50
2019-01-11T04:26:43.880Z,81.40
2019-01-11T04:29:12.462Z,80.90
2019-01-11T04:31:41.014Z,80.20
2019-01-11T04:34:09.602Z,79.60
2019-01-11T04:36:38.210Z,79.10
2019-01-11T04:39:08.026Z,79.30
2019-01-11T04:41:36.580Z,79.70
2019-01-11T04:44:05.159Z,79.60
2019-01-11T04:46:33.712Z,79.60
2019-01-11T04:49:02.291Z,78.90
2019-01-11T04:51:30.941Z,78.80
2019-01-11T04:53:59.518Z,77.50
2019-01-11T04:56:28.071Z,76.90
2019-01-11T04:58:56.652Z,77.80
2019-01-11T05:01:25.370Z,79.60
2019-01-11T05:03:54.043Z,80.70
2019-01-11T05:06:22.590Z,78.00
2019-01-11T05:08:51.200Z,77.20
2019-01-11T05:11:19.745Z,76.90
2019-01-11T05:13:50.007Z,77.50
2019-01-11T05:16:18.623Z,78.20
2019-01-11T05:18:47.207Z,77.70
2019-01-11T05:21:15.775Z,77.50
2019-01-11T05:23:44.336Z,79.80
2019-01-11T05:26:12.983Z,76.90
2019-01-11T05:28:41.458Z,77.30
2019-01-11T05:31:10.036Z,77.70
2019-01-11T05:33:38.520Z,76.00
2019-01-11T05:36:07.033Z,76.20
2019-01-11T05:38:35.583Z,76.20
2019-01-11T05:41:04.273Z,78.10
2019-01-11T05:43:32.821Z,78.00
2019-01-11T05:46:01.414Z,76.50
2019-01-11T05:48:29.954Z,75.70
2019-01-11T05:50:58.543Z,76.40
2019-01-11T05:53:27.166Z,75.50
2019-01-11T05:55:55.918Z,76.60
2019-01-11T05:58:28.989Z,76.20
2019-01-11T06:00:57.641Z,76.70
2019-01-11T06:03:26.259Z,76.30
2019-01-11T06:05:54.915Z,74.80
2019-01-11T06:08:23.475Z,75.50
2019-01-11T06:10:52.053Z,76.40
2019-01-11T06:13:20.606Z,76.40
2019-01-11T06:15:49.457Z,75.00
2019-01-11T06:18:18.091Z,75.50
2019-01-11T06:20:46.597Z,75.60
2019-01-11T06:23:15.153Z,74.40
2019-01-11T06:25:43.660Z,77.20
2019-01-11T06:28:12.291Z,75.60
2019-01-11T06:30:40.895Z,75.70
2019-01-11T06:33:10.113Z,77.60
2019-01-11T06:35:38.929Z,76.20
2019-01-11T06:38:07.477Z,76.80
2019-01-11T06:40:36.054Z,77.60
2019-01-11T06:43:04.854Z,77.60
2019-01-11T06:45:33.434Z,76.00
2019-01-11T06:48:02.145Z,76.20
2019-01-11T06:50:36.345Z,77.60
2019-01-11T06:53:00.925Z,76.00
2019-01-11T06:55:29.470Z,77.30
2019-01-11T06:57:58.126Z,76.30
2019-01-11T07:00:26.678Z,78.30
2019-01-11T07:02:55.187Z,77.60
2019-01-11T07:05:23.743Z,77.70
2019-01-11T07:07:52.331Z,77.50
2019-01-11T07:10:22.629Z,78.60
2019-01-11T07:12:51.216Z,78.40
2019-01-11T07:15:19.911Z,78.00
2019-01-11T07:17:48.492Z,77.30
2019-01-11T07:20:17.116Z,77.30
2019-01-11T07:22:45.693Z,80.10
2019-01-11T07:25:17.368Z,78.90
2019-01-11T07:27:47.516Z,79.30
2019-01-11T07:30:16.785Z,80.40
2019-01-11T07:32:45.337Z,80.60
2019-01-11T07:35:14.032Z,81.00
2019-01-11T07:37:42.680Z,81.90
2019-01-11T07:40:12.514Z,81.90
2019-01-11T07:42:41.094Z,82.10
2019-01-11T07:45:12.041Z,82.70
2019-01-11T07:47:40.638Z,84.70
2019-01-11T07:50:10.253Z,85.70
2019-01-11T07:52:40.120Z,85.50
2019-01-11T07:55:09.871Z,83.70
2019-01-11T07:57:38.529Z,83.90
2019-01-11T08:00:10.153Z,84.30
2019-01-11T08:02:38.667Z,85.20
2019-01-11T08:05:07.720Z,83.80
2019-01-11T08:07:36.575Z,82.00
2019-01-11T08:10:13.040Z,84.00
2019-01-11T08:12:41.684Z,81.00
2019-01-11T08:15:16.245Z,81.90
2019-01-11T08:17:44.893Z,83.00
2019-01-11T08:20:13.634Z,83.50
2019-01-11T08:22:44.898Z,83.50
2019-01-11T08:25:14.787Z,82.60
2019-01-11T08:27:44.599Z,82.10
2019-01-11T08:30:17.225Z,82.30
2019-01-11T08:32:45.821Z,83.90
2019-01-11T08:35:15.419Z,84.10
2019-01-11T08:37:44.214Z,82.70
2019-01-11T08:40:13.094Z,82.50
2019-01-11T08:42:41.795Z,83.90
2019-01-11T08:45:12.830Z,84.40
2019-01-11T08:47:41.455Z,82.20
2019-01-11T08:50:18.861Z,85.00
2019-01-11T08:52:47.987Z,84.00
2019-01-11T08:55:16.823Z,81.50
2019-01-11T08:57:45.439Z,83.00
2019-01-11T09:00:15.462Z,84.40
2019-01-11T09:02:44.086Z,82.40
2019-01-11T09:05:13.305Z,81.10
2019-01-11T09:07:42.434Z,81.80
2019-01-11T09:10:14.154Z,81.70
2019-01-11T09:12:42.709Z,83.00
2019-01-11T09:15:11.358Z,82.30
2019-01-11T09:17:41.623Z,81.40
2019-01-11T09:20:10.381Z,82.70
2019-01-11T09:22:38.864Z,82.00
2019-01-11T09:25:07.448Z,82.60
2019-01-11T09:27:36.001Z,83.70
2019-01-11T09:30:07.719Z,82.90
2019-01-11T09:32:36.294Z,84.40
2019-01-11T09:35:05.413Z,81.40
2019-01-11T09:37:33.968Z,83.10
2019-01-11T09:40:02.736Z,83.80
2019-01-11T09:42:31.289Z,83.80
2019-01-11T09:44:59.868Z,82.50
2019-01-11T09:47:28.346Z,83.40
2019-01-11T09:49:57.001Z,83.30
2019-01-11T09:52:25.553Z,82.70
2019-01-11T09:54:54.345Z,83.40
2019-01-11T09:57:22.847Z,83.80
2019-01-11T09:59:51.431Z,82.00
2019-01-11T10:02:39.377Z,83.20
2019-01-11T10:05:09.608Z,84.00
2019-01-11T10:07:38.943Z,82.90
2019-01-11T10:10:10.637Z,83.90
2019-01-11T10:12:39.227Z,83.00
2019-01-11T10:15:10.595Z,84.80
2019-01-11T10:17:39.378Z,84.40
2019-01-11T10:20:10.510Z,86.30
2019-01-11T10:22:39.130Z,85.30
2019-01-11T10:25:12.435Z,86.90
2019-01-11T10:27:41.223Z,86.90
2019-01-11T10:30:13.117Z,87.20
2019-01-11T10:32:41.809Z,88.20
2019-01-11T10:35:11.125Z,85.00
2019-01-11T10:37:39.830Z,86.00
2019-01-11T10:40:11.323Z,86.40
2019-01-11T10:42:39.911Z,86.20
2019-01-11T10:45:11.893Z,87.20
2019-01-11T10:47:40.473Z,85.80
2019-01-11T10:50:12.703Z,86.60
2019-01-11T10:52:41.458Z,87.80
2019-01-11T10:55:12.255Z,86.70
2019-01-11T10:57:41.189Z,86.90
2019-01-11T11:00:18.591Z,87.10
2019-01-11T11:02:47.173Z,88.80
2019-01-11T11:05:15.793Z,87.70
2019-01-11T11:07:44.390Z,87.70
2019-01-11T11:10:14.892Z,87.60
2019-01-11T11:12:43.640Z,88.40
2019-01-11T11:15:14.801Z,87.60
2019-01-11T11:17:43.477Z,88.50
2019-01-11T11:20:16.886Z,87.70
2019-01-11T11:22:45.468Z,87.50
2019-01-11T11:25:18.963Z,88.50
2019-01-11T11:27:47.754Z,87.80
2019-01-11T11:30:18.076Z,88.80
2019-01-11T11:32:48.333Z,89.40
2019-01-11T11:35:16.918Z,89.00
2019-01-11T11:37:45.462Z,88.60
2019-01-11T11:40:14.117Z,88.40
2019-01-11T11:42:42.729Z,87.70
2019-01-11T11:45:11.681Z,86.80
2019-01-11T11:47:40.252Z,89.40
2019-01-11T11:50:10.648Z,88.10
2019-01-11T11:52:39.298Z,88.20
2019-01-11T11:55:09.085Z,88.00
2019-01-11T11:57:37.591Z,90.20
2019-01-11T12:00:15.129Z,88.80
2019-01-11T12:02:43.709Z,89.10
2019-01-11T12:05:12.536Z,88.90
2019-01-11T12:07:41.125Z,89.30
2019-01-11T12:10:12.251Z,89.40
2019-01-11T12:12:40.942Z,90.10
2019-01-11T12:15:11.335Z,90.00
2019-01-11T12:17:39.916Z,88.70
2019-01-11T12:20:14.963Z,89.70
2019-01-11T12:22:43.614Z,88.50
2019-01-11T12:25:12.237Z,90.40
2019-01-11T12:27:40.768Z,90.00
2019-01-11T12:30:12.253Z,90.00
2019-01-11T12:32:40.833Z,90.50
2019-01-11T12:35:09.384Z,90.30
2019-01-11T12:37:38.090Z,90.20
2019-01-11T12:40:09.595Z,90.50
2019-01-11T12:42:38.257Z,90.80
2019-01-11T12:45:09.445Z,90.70
2019-01-11T12:47:38.097Z,90.50
2019-01-11T12:50:09.883Z,90.80
2019-01-11T12:52:38.425Z,90.20
2019-01-11T12:55:07.547Z,90.20
2019-01-11T12:57:36.097Z,89.60
2019-01-11T13:00:10.745Z,90.10
2019-01-11T13:02:39.303Z,89.80
2019-01-11T13:05:10.830Z,89.20
2019-01-11T13:07:39.377Z,89.30
2019-01-11T13:10:13.850Z,89.80
2019-01-11T13:12:42.476Z,90.10
2019-01-11T13:15:13.697Z,89.90
2019-01-11T13:17:42.329Z,89.40
2019-01-11T13:20:13.233Z,89.00
2019-01-11T13:22:41.777Z,89.90
2019-01-11T13:25:10.602Z,89.60
2019-01-11T13:27:39.309Z,90.70
2019-01-11T13:30:10.974Z,90.30
2019-01-11T13:32:39.521Z,90.30
2019-01-11T13:35:08.559Z,89.40
2019-01-11T13:37:37.197Z,90.20
2019-01-11T13:40:14.605Z,90.40
2019-01-11T13:42:43.171Z,90.20
2019-01-11T13:45:11.921Z,90.40
2019-01-11T13:47:40.473Z,90.80
2019-01-11T13:50:17.713Z,90.70
2019-01-11T13:52:46.287Z,90.00
2019-01-11T13:55:14.927Z,91.10
2019-01-11T13:57:43.476Z,90.80
2019-01-11T14:00:21.736Z,91.10
2019-01-11T14:02:50.924Z,90.40
2019-01-11T14:05:19.572Z,90.70
2019-01-11T14:07:48.198Z,90.90
2019-01-11T14:10:16.881Z,90.60
2019-01-11T14:12:45.443Z,90.60
2019-01-11T14:15:14.173Z,90.50
2019-01-11T14:17:42.893Z,91.00
2019-01-11T14:20:12.115Z,90.60
2019-01-11T14:22:40.748Z,91.40
2019-01-11T14:25:10.964Z,90.80
2019-01-11T14:27:39.577Z,91.40
2019-01-11T14:30:13.510Z,91.90
2019-01-11T14:32:42.187Z,90.30
2019-01-11T14:35:10.918Z,91.60
2019-01-11T14:37:39.553Z,91.00
2019-01-11T14:40:11.246Z,91.40
2019-01-11T14:42:39.790Z,91.90
2019-01-11T14:45:11.214Z,91.20
2019-01-11T14:47:39.770Z,91.20
2019-01-11T14:50:11.502Z,91.40
2019-01-11T14:52:39.986Z,91.60
2019-01-11T14:55:09.410Z,92.10
2019-01-11T14:57:37.959Z,92.50
2019-01-11T15:00:12.438Z,91.20
2019-01-11T15:02:41.153Z,91.20
2019-01-11T15:05:11.442Z,92.10
2019-01-11T15:07:40.021Z,91.60
2019-01-11T15:10:11.551Z,91.10
2019-01-11T15:12:41.178Z,91.20
2019-01-11T15:15:10.084Z,91.60
2019-01-11T15:17:38.668Z,91.30
2019-01-11T15:20:10.559Z,91.20
2019-01-11T15:22:39.206Z,91.80
2019-01-11T15:25:29.296Z,91.60
2019-01-11T15:27:57.877Z,91.50
2019-01-11T15:30:26.496Z,91.20
2019-01-11T15:32:55.073Z,91.10
2019-01-11T15:35:23.706Z,91.50
2019-01-11T15:37:52.234Z,91.30
2019-01-11T15:40:25.805Z,91.30
2019-01-11T15:42:54.523Z,91.40
2019-01-11T15:45:23.082Z,91.50
2019-01-11T15:47:51.614Z,92.20
2019-01-11T15:50:42.906Z,91.90
2019-01-11T15:53:11.509Z,91.80
2019-01-11T15:55:40.117Z,92.10
2019-01-11T15:58:08.782Z,92.20
2019-01-11T16:00:45.906Z,92.70
2019-01-11T16:03:14.589Z,93.00
2019-01-11T16:05:43.212Z,93.30
2019-01-11T16:08:11.828Z,93.20
2019-01-11T16:10:55.114Z,93.40
2019-01-11T16:13:23.844Z,93.80
2019-01-11T16:15:55.503Z,93.10
2019-01-11T16:18:24.147Z,93.00
2019-01-11T16:20:54.310Z,93.60
2019-01-11T16:23:22.964Z,93.50
2019-01-11T16:25:51.509Z,93.70
2019-01-11T16:28:20.029Z,94.20
2019-01-11T16:30:48.661Z,93.90
2019-01-11T16:33:17.312Z,93.90
2019-01-11T16:35:45.866Z,94.00
2019-01-11T16:38:14.450Z,94.10
2019-01-11T16:40:43.002Z,94.30
2019-01-11T16:43:11.602Z,94.50
2019-01-11T16:45:40.159Z,93.70
2019-01-11T16:48:08.742Z,93.80
2019-01-11T16:50:37.315Z,94.00
2019-01-11T16:53:06.074Z,93.50
2019-01-11T16:55:34.551Z,94.20
2019-01-11T16:58:03.133Z,93.60
2019-01-11T17:00:31.622Z,94.00
2019-01-11T17:03:00.331Z,94.10
2019-01-11T17:05:28.966Z,93.80
2019-01-11T17:07:57.550Z,93.50
2019-01-11T17:10:26.125Z,93.20
2019-01-11T17:12:54.706Z,93.60
2019-01-11T17:15:23.266Z,93.00
2019-01-11T17:17:51.822Z,93.00
2019-01-11T17:20:20.474Z,93.10
2019-01-11T17:22:52.940Z,92.90
2019-01-11T17:25:19.278Z,93.40
2019-01-11T17:27:47.834Z,93.30
2019-01-11T17:30:17.385Z,93.00
2019-01-11T17:32:46.001Z,93.00
2019-01-11T17:35:14.687Z,92.80
2019-01-11T17:37:43.374Z,92.80
2019-01-11T17:40:12.599Z,92.90
2019-01-11T17:42:41.287Z,92.70
2019-01-11T17:45:12.110Z,93.10
2019-01-11T17:47:41.004Z,93.00
2019-01-11T17:50:14.032Z,93.10
2019-01-11T17:52:42.901Z,92.80
2019-01-11T17:55:11.910Z,92.60
2019-01-11T17:57:40.536Z,92.90
2019-01-11T18:00:12.051Z,93.10
2019-01-11T18:02:40.669Z,92.80
2019-01-11T18:05:11.095Z,93.40
2019-01-11T18:07:39.822Z,93.00
2019-01-11T18:10:10.155Z,92.80
2019-01-11T18:12:38.966Z,93.10
2019-01-11T18:15:13.852Z,93.40
2019-01-11T18:17:42.494Z,93.70
2019-01-11T18:20:14.498Z,93.10
2019-01-11T18:22:43.105Z,93.30
2019-01-11T18:25:11.794Z,92.70
2019-01-11T18:27:40.417Z,92.40
2019-01-11T18:30:12.094Z,92.70
2019-01-11T18:32:40.650Z,92.80
2019-01-11T18:35:09.782Z,94.00
2019-01-11T18:37:38.331Z,93.60
2019-01-11T18:40:15.534Z,93.80
2019-01-11T18:42:44.354Z,94.00
2019-01-11T18:45:13.048Z,93.90
2019-01-11T18:47:41.658Z,93.70
2019-01-11T18:50:22.287Z,93.90
2019-01-11T18:52:51.318Z,93.90
2019-01-11T18:55:20.105Z,93.60
2019-01-11T18:57:48.796Z,93.60
2019-01-11T19:00:22.110Z,93.70
2019-01-11T19:02:50.779Z,94.00
2019-01-11T19:05:19.430Z,94.00
2019-01-11T19:07:48.390Z,94.10
2019-01-11T19:10:18.747Z,93.80
2019-01-11T19:12:47.368Z,94.10
2019-01-11T19:15:24.774Z,94.10
2019-01-11T19:17:53.471Z,94.20
2019-01-11T19:20:24.298Z,94.00
2019-01-11T19:22:53.119Z,94.40
2019-01-11T19:25:21.774Z,94.00
2019-01-11T19:27:50.434Z,94.30
2019-01-11T19:30:23.742Z,93.60
2019-01-11T19:32:52.306Z,94.40
2019-01-11T19:35:21.008Z,93.80
2019-01-11T19:37:49.674Z,94.00
2019-01-11T19:40:18.370Z,93.40
2019-01-11T19:42:47.624Z,93.30
2019-01-11T19:45:17.006Z,93.40
2019-01-11T19:47:45.664Z,93.40
2019-01-11T19:50:19.904Z,93.30
2019-01-11T19:52:50.219Z,93.20
2019-01-11T19:55:19.848Z,93.70
2019-01-11T19:57:48.429Z,94.20
2019-01-11T20:00:20.142Z,93.70
2019-01-11T20:02:50.661Z,93.70
2019-01-11T20:05:19.875Z,94.00
2019-01-11T20:07:48.797Z,93.50
2019-01-11T20:10:23.254Z,93.40
2019-01-11T20:12:51.902Z,93.50
2019-01-11T20:15:20.531Z,93.10
2019-01-11T20:17:49.185Z,93.60
2019-01-11T20:20:17.735Z,93.70
2019-01-11T20:22:46.334Z,93.20
2019-01-11T20:25:17.830Z,93.20
2019-01-11T20:27:46.747Z,92.80
2019-01-11T20:30:23.873Z,93.20
2019-01-11T20:32:52.451Z,93.20
2019-01-11T20:35:21.275Z,93.30
2019-01-11T20:37:50.102Z,93.10
2019-01-11T20:40:19.032Z,93.40
2019-01-11T20:42:47.855Z,93.60
2019-01-11T20:45:18.364Z,93.50
2019-01-11T20:47:46.996Z,93.60
2019-01-11T20:50:17.933Z,93.50
2019-01-11T20:52:46.659Z,93.60
2019-01-11T20:55:34.543Z,93.40
2019-01-11T20:58:03.295Z,93.30
2019-01-11T21:00:32.441Z,93.10
2019-01-11T21:03:01.190Z,93.10
2019-01-11T21:05:30.314Z,93.20
2019-01-11T21:07:59.042Z,93.20
2019-01-11T21:10:27.666Z,93.40
2019-01-11T21:12:56.344Z,93.30
2019-01-11T21:15:25.043Z,93.30
2019-01-11T21:17:53.642Z,93.30
2019-01-11T21:20:22.365Z,93.40
2019-01-11T21:22:50.915Z,93.20
2019-01-11T21:25:20.582Z,93.20
2019-01-11T21:27:49.383Z,93.20
2019-01-11T21:30:26.074Z,93.50
2019-01-11T21:32:54.872Z,93.30
2019-01-11T21:35:23.811Z,93.40
2019-01-11T21:37:52.617Z,94.20
2019-01-11T21:40:21.639Z,94.00
2019-01-11T21:42:50.429Z,93.90
2019-01-11T21:45:19.349Z,93.50
2019-01-11T21:47:48.084Z,93.10
2019-01-11T21:50:21.878Z,93.40
2019-01-11T21:52:50.499Z,93.30
2019-01-11T21:55:19.323Z,93.50
2019-01-11T21:57:48.114Z,94.00
2019-01-11T22:00:22.713Z,93.40
2019-01-11T22:02:51.291Z,93.80
2019-01-11T22:05:20.009Z,93.80
2019-01-11T22:07:48.561Z,93.50
2019-01-11T22:10:17.916Z,93.20
2019-01-11T22:12:47.636Z,93.30
2019-01-11T22:15:18.591Z,93.10
2019-01-11T22:17:47.155Z,92.80
2019-01-11T22:20:17.206Z,93.00
2019-01-11T22:22:45.862Z,92.70
2019-01-11T22:25:16.536Z,92.50
2019-01-11T22:27:45.154Z,92.40
2019-01-11T22:30:16.480Z,92.40
2019-01-11T22:32:45.275Z,92.30
2019-01-11T22:35:14.203Z,92.70
2019-01-11T22:37:42.761Z,92.50
2019-01-11T22:40:19.319Z,92.40
2019-01-11T22:42:49.225Z,92.30
2019-01-11T22:45:17.893Z,92.40
2019-01-11T22:47:46.527Z,92.30
2019-01-11T22:50:16.361Z,92.20
2019-01-11T22:52:45.057Z,92.60
2019-01-11T22:55:15.786Z,92.30
2019-01-11T22:57:44.687Z,92.40
2019-01-11T23:00:39.157Z,92.20
2019-01-11T23:03:16.761Z,92.20
2019-01-11T23:05:46.571Z,92.40
2019-01-11T23:08:36.933Z,92.40
2019-01-11T23:11:37.383Z,92.40
2019-01-11T23:14:06.009Z,92.20
2019-01-11T23:16:36.140Z,92.70
2019-01-11T23:19:04.773Z,92.30
2019-01-11T23:21:33.379Z,92.30
2019-01-11T23:24:01.968Z,92.20
2019-01-11T23:26:30.679Z,92.30
2019-01-11T23:28:59.245Z,92.00
2019-01-11T23:31:27.982Z,92.00
2019-01-11T23:33:56.531Z,92.30
2019-01-11T23:36:25.122Z,92.30
2019-01-11T23:38:53.681Z,92.40
2019-01-11T23:41:22.267Z,92.20
2019-01-11T23:43:50.839Z,91.90
2019-01-11T23:46:19.424Z,92.10
2019-01-11T23:48:47.986Z,92.20
2019-01-11T23:51:16.574Z,92.00
2019-01-11T23:53:45.139Z,92.00
2019-01-11T23:56:13.750Z,92.10
2019-01-11T23:58:42.303Z,91.80
